CKS961 PANC-KLAX
Flight info
| Callsign | CKS961 |
|---|---|
| Flight time | 4h 39m |
| Altitude | 39000 |
| Route | MDO B453 KYLLE/N0477F410 B453 BOXER FOT ENI BURGL BAYST1 |
| Aircraft | B77L/H-SDE1E2E3FGHIJ2J3J4J5M1RWXY/LB1D1 |
Departure
| Time | 2026-04-23 23:26 |
|---|---|
| Airport | Ted Stevens Anchorage International Airport (PANC) |
Arrival
| Time | 2026-04-24 04:05 |
|---|---|
| Airport | Los Angeles International Airport (KLAX) |
| Time | Latitude | Longitude | Altitude | Speed | Heading |
|---|---|---|---|---|---|
| 2026-04-23 23:05 | 61.18634 | -150.00119 | 125 ft | 0 kts | 326° |
| 2026-04-23 23:19 | 61.18643 | -150.00131 | 125 ft | 7 kts | 326° |
| 2026-04-23 23:20 | 61.18691 | -150.00275 | 130 ft | 18 kts | 264° |
| 2026-04-23 23:20 | 61.18586 | -150.00297 | 130 ft | 17 kts | 165° |
| 2026-04-23 23:20 | 61.18448 | -150.00235 | 127 ft | 22 kts | 163° |
| 2026-04-23 23:20 | 61.18281 | -150.00151 | 122 ft | 27 kts | 166° |
| 2026-04-23 23:21 | 61.18079 | -150.00041 | 118 ft | 31 kts | 164° |
| 2026-04-23 23:21 | 61.17878 | -149.99925 | 115 ft | 28 kts | 165° |
| 2026-04-23 23:21 | 61.17692 | -149.99805 | 116 ft | 27 kts | 163° |
| 2026-04-23 23:21 | 61.17518 | -149.99705 | 118 ft | 24 kts | 168° |
| 2026-04-23 23:22 | 61.17358 | -149.99626 | 121 ft | 22 kts | 165° |
| 2026-04-23 23:22 | 61.17211 | -149.99548 | 123 ft | 20 kts | 165° |
| 2026-04-23 23:22 | 61.17125 | -149.99368 | 122 ft | 18 kts | 93° |
| 2026-04-23 23:22 | 61.17124 | -149.99068 | 119 ft | 22 kts | 91° |
| 2026-04-23 23:23 | 61.17117 | -149.98726 | 116 ft | 24 kts | 88° |
| 2026-04-23 23:23 | 61.17119 | -149.98352 | 113 ft | 27 kts | 90° |
| 2026-04-23 23:23 | 61.17120 | -149.97923 | 109 ft | 31 kts | 89° |
| 2026-04-23 23:23 | 61.17123 | -149.97475 | 105 ft | 31 kts | 86° |
| 2026-04-23 23:24 | 61.17135 | -149.97025 | 100 ft | 31 kts | 88° |
| 2026-04-23 23:24 | 61.17012 | -149.96774 | 100 ft | 26 kts | 185° |
| 2026-04-23 23:24 | 61.16886 | -149.96976 | 105 ft | 22 kts | 248° |
| 2026-04-23 23:24 | 61.16832 | -149.97258 | 110 ft | 19 kts | 242° |
| 2026-04-23 23:25 | 61.16787 | -149.97476 | 114 ft | 10 kts | 268° |
| 2026-04-23 23:25 | 61.16785 | -149.97589 | 115 ft | 23 kts | 269° |
| 2026-04-23 23:25 | 61.16786 | -149.98735 | 124 ft | 135 kts | 270° |
| 2026-04-23 23:25 | 61.16783 | -150.01224 | 541 ft | 201 kts | 264° |
| 2026-04-23 23:26 | 61.16714 | -150.04011 | 2047 ft | 196 kts | 262° |
| 2026-04-23 23:26 | 61.16626 | -150.06779 | 3144 ft | 208 kts | 259° |
| 2026-04-23 23:26 | 61.16077 | -150.09526 | 4158 ft | 219 kts | 224° |
| 2026-04-23 23:26 | 61.14764 | -150.11130 | 5203 ft | 230 kts | 187° |
| 2026-04-23 23:27 | 61.13207 | -150.10649 | 6258 ft | 243 kts | 150° |
| 2026-04-23 23:27 | 61.11919 | -150.08305 | 7326 ft | 260 kts | 132° |
| 2026-04-23 23:27 | 61.10732 | -150.05508 | 8647 ft | 267 kts | 131° |
| 2026-04-23 23:27 | 61.09528 | -150.02638 | 9909 ft | 274 kts | 131° |
| 2026-04-23 23:28 | 61.08261 | -149.99623 | 11021 ft | 286 kts | 131° |
| 2026-04-23 23:28 | 61.06944 | -149.96495 | 11973 ft | 303 kts | 132° |
| 2026-04-23 23:28 | 61.05534 | -149.93149 | 12978 ft | 319 kts | 133° |
| 2026-04-23 23:28 | 61.04046 | -149.89624 | 13984 ft | 334 kts | 133° |
| 2026-04-23 23:29 | 61.02504 | -149.85977 | 14969 ft | 348 kts | 134° |
| 2026-04-23 23:29 | 61.00893 | -149.82170 | 15910 ft | 364 kts | 134° |
| 2026-04-23 23:29 | 60.99191 | -149.78155 | 16825 ft | 380 kts | 135° |
| 2026-04-23 23:29 | 60.97430 | -149.74014 | 17721 ft | 395 kts | 135° |
| 2026-04-23 23:30 | 60.95617 | -149.69754 | 18735 ft | 405 kts | 135° |
| 2026-04-23 23:30 | 60.93754 | -149.65382 | 19758 ft | 414 kts | 136° |
| 2026-04-23 23:30 | 60.91833 | -149.60883 | 20758 ft | 422 kts | 136° |
| 2026-04-23 23:30 | 60.89891 | -149.56345 | 21718 ft | 430 kts | 136° |
| 2026-04-23 23:31 | 60.87924 | -149.51759 | 22670 ft | 438 kts | 136° |
| 2026-04-23 23:31 | 60.85903 | -149.47054 | 23672 ft | 443 kts | 136° |
| 2026-04-23 23:31 | 60.83874 | -149.42337 | 24649 ft | 448 kts | 137° |
| 2026-04-23 23:31 | 60.81805 | -149.37540 | 25626 ft | 454 kts | 137° |
| 2026-04-23 23:32 | 60.79699 | -149.32667 | 26604 ft | 460 kts | 138° |
| 2026-04-23 23:32 | 60.77584 | -149.27795 | 27563 ft | 466 kts | 139° |
| 2026-04-23 23:32 | 60.75422 | -149.22826 | 28506 ft | 474 kts | 139° |
| 2026-04-23 23:32 | 60.73218 | -149.17766 | 29473 ft | 481 kts | 139° |
| 2026-04-23 23:33 | 60.71015 | -149.12688 | 30639 ft | 482 kts | 140° |
| 2026-04-23 23:33 | 60.68819 | -149.07651 | 31995 ft | 477 kts | 140° |
| 2026-04-23 23:33 | 60.66653 | -149.02689 | 33301 ft | 472 kts | 141° |
| 2026-04-23 23:33 | 60.64492 | -148.97754 | 34467 ft | 469 kts | 141° |
| 2026-04-23 23:34 | 60.62335 | -148.92842 | 35560 ft | 467 kts | 142° |
| 2026-04-23 23:34 | 60.60192 | -148.87970 | 36615 ft | 465 kts | 142° |
| 2026-04-23 23:34 | 60.58050 | -148.83115 | 37609 ft | 462 kts | 142° |
| 2026-04-23 23:34 | 60.55875 | -148.78200 | 38354 ft | 465 kts | 142° |
| 2026-04-23 23:35 | 60.53676 | -148.73247 | 38401 ft | 468 kts | 141° |
| 2026-04-23 23:35 | 60.51467 | -148.68271 | 38176 ft | 463 kts | 141° |
| 2026-04-23 23:35 | 60.49311 | -148.63419 | 38153 ft | 456 kts | 140° |
| 2026-04-23 23:35 | 60.47126 | -148.58524 | 38299 ft | 461 kts | 140° |
| 2026-04-23 23:36 | 60.44945 | -148.53651 | 38502 ft | 463 kts | 140° |
| 2026-04-23 23:36 | 60.42780 | -148.48819 | 38722 ft | 462 kts | 140° |
| 2026-04-23 23:36 | 60.40643 | -148.44060 | 38939 ft | 463 kts | 140° |
| 2026-04-23 23:36 | 60.38479 | -148.39252 | 39157 ft | 463 kts | 140° |
| 2026-04-23 23:37 | 60.36281 | -148.34383 | 39285 ft | 466 kts | 140° |
| 2026-04-23 23:37 | 60.31930 | -148.24764 | 39304 ft | 462 kts | 140° |
| 2026-04-23 23:38 | 60.27616 | -148.15263 | 39306 ft | 462 kts | 140° |
| 2026-04-23 23:38 | 60.23270 | -148.05737 | 39312 ft | 461 kts | 140° |
| 2026-04-23 23:39 | 60.18930 | -147.96265 | 39321 ft | 461 kts | 140° |
| 2026-04-23 23:39 | 60.14591 | -147.86833 | 39310 ft | 462 kts | 140° |
| 2026-04-23 23:40 | 60.10261 | -147.77460 | 39301 ft | 461 kts | 140° |
| 2026-04-23 23:40 | 60.05894 | -147.68045 | 39314 ft | 462 kts | 140° |
| 2026-04-23 23:41 | 60.01532 | -147.58682 | 39323 ft | 462 kts | 140° |
| 2026-04-23 23:41 | 59.97161 | -147.49339 | 39311 ft | 462 kts | 140° |
| 2026-04-23 23:42 | 59.92793 | -147.40039 | 39341 ft | 463 kts | 140° |
| 2026-04-23 23:42 | 59.88382 | -147.30687 | 39375 ft | 461 kts | 141° |
| 2026-04-23 23:43 | 59.84001 | -147.21436 | 39383 ft | 461 kts | 141° |
| 2026-04-23 23:43 | 59.79610 | -147.12203 | 39380 ft | 461 kts | 141° |
| 2026-04-23 23:44 | 59.75202 | -147.02972 | 39378 ft | 461 kts | 141° |
| 2026-04-23 23:44 | 59.70802 | -146.93797 | 39377 ft | 462 kts | 141° |
| 2026-04-23 23:45 | 59.66392 | -146.84637 | 39373 ft | 463 kts | 141° |
| 2026-04-23 23:45 | 59.61939 | -146.75427 | 39372 ft | 463 kts | 141° |
| 2026-04-23 23:46 | 59.57504 | -146.66290 | 39369 ft | 464 kts | 141° |
| 2026-04-23 23:46 | 59.53050 | -146.57152 | 39367 ft | 464 kts | 141° |
| 2026-04-23 23:47 | 59.48609 | -146.48076 | 39365 ft | 465 kts | 141° |
| 2026-04-23 23:47 | 59.44106 | -146.38910 | 39364 ft | 465 kts | 141° |
| 2026-04-23 23:48 | 59.39757 | -146.29588 | 39359 ft | 470 kts | 136° |
| 2026-04-23 23:48 | 59.35659 | -146.19595 | 39357 ft | 470 kts | 136° |
| 2026-04-23 23:49 | 59.29512 | -146.04802 | 39358 ft | 470 kts | 136° |
| 2026-04-23 23:49 | 59.25373 | -145.94946 | 39359 ft | 469 kts | 136° |
| 2026-04-23 23:50 | 59.21259 | -145.85213 | 39365 ft | 470 kts | 136° |
| 2026-04-23 23:50 | 59.17102 | -145.75427 | 39367 ft | 471 kts | 136° |
| 2026-04-23 23:51 | 59.12917 | -145.65625 | 39364 ft | 471 kts | 136° |
| 2026-04-23 23:51 | 59.08728 | -145.55855 | 39361 ft | 471 kts | 136° |
| 2026-04-23 23:52 | 59.04551 | -145.46156 | 39360 ft | 470 kts | 136° |
| 2026-04-23 23:52 | 59.00380 | -145.36513 | 39361 ft | 470 kts | 136° |
| 2026-04-23 23:53 | 58.96182 | -145.26846 | 39351 ft | 469 kts | 137° |
| 2026-04-23 23:53 | 58.91977 | -145.17206 | 39343 ft | 469 kts | 137° |
| 2026-04-23 23:54 | 58.87785 | -145.07636 | 39345 ft | 469 kts | 137° |
| 2026-04-23 23:54 | 58.83583 | -144.98082 | 39345 ft | 470 kts | 137° |
| 2026-04-23 23:55 | 58.79345 | -144.88484 | 39345 ft | 470 kts | 137° |
| 2026-04-23 23:55 | 58.75141 | -144.79002 | 39344 ft | 470 kts | 137° |
| 2026-04-23 23:56 | 58.70901 | -144.69478 | 39344 ft | 469 kts | 137° |
| 2026-04-23 23:56 | 58.66678 | -144.60030 | 39343 ft | 469 kts | 137° |
| 2026-04-23 23:57 | 58.62423 | -144.50551 | 39351 ft | 469 kts | 136° |
| 2026-04-23 23:57 | 58.58176 | -144.41128 | 39367 ft | 470 kts | 136° |
| 2026-04-23 23:58 | 58.53926 | -144.31737 | 39374 ft | 470 kts | 137° |
| 2026-04-23 23:58 | 58.49639 | -144.22301 | 39376 ft | 469 kts | 137° |
| 2026-04-23 23:59 | 58.45383 | -144.12972 | 39376 ft | 469 kts | 137° |
| 2026-04-23 23:59 | 58.41117 | -144.03657 | 39379 ft | 469 kts | 137° |
| 2026-04-24 00:00 | 58.36820 | -143.94310 | 39380 ft | 469 kts | 137° |
| 2026-04-24 00:00 | 58.32544 | -143.85049 | 39383 ft | 469 kts | 137° |
| 2026-04-24 00:01 | 58.28256 | -143.75801 | 39383 ft | 469 kts | 137° |
| 2026-04-24 00:01 | 58.23940 | -143.66527 | 39386 ft | 469 kts | 137° |
| 2026-04-24 00:02 | 58.19637 | -143.57317 | 39397 ft | 469 kts | 137° |
| 2026-04-24 00:02 | 58.15336 | -143.48149 | 39423 ft | 469 kts | 137° |
| 2026-04-24 00:03 | 58.10989 | -143.38919 | 39441 ft | 470 kts | 137° |
| 2026-04-24 00:03 | 58.06676 | -143.29797 | 39437 ft | 469 kts | 138° |
| 2026-04-24 00:04 | 58.02317 | -143.20615 | 39438 ft | 470 kts | 137° |
| 2026-04-24 00:04 | 57.97987 | -143.11528 | 39443 ft | 470 kts | 137° |
| 2026-04-24 00:05 | 57.93617 | -143.02396 | 39467 ft | 471 kts | 137° |
| 2026-04-24 00:05 | 57.89222 | -142.93247 | 39479 ft | 471 kts | 137° |
| 2026-04-24 00:06 | 57.84843 | -142.84164 | 39477 ft | 471 kts | 137° |
| 2026-04-24 00:06 | 57.80453 | -142.75098 | 39492 ft | 472 kts | 137° |
| 2026-04-24 00:07 | 57.76058 | -142.66055 | 39497 ft | 473 kts | 137° |
| 2026-04-24 00:07 | 57.71632 | -142.56982 | 39482 ft | 473 kts | 136° |
| 2026-04-24 00:08 | 57.67218 | -142.47972 | 39469 ft | 474 kts | 136° |
| 2026-04-24 00:08 | 57.62786 | -142.38959 | 39465 ft | 474 kts | 136° |
| 2026-04-24 00:09 | 57.58315 | -142.29901 | 39459 ft | 474 kts | 137° |
| 2026-04-24 00:09 | 57.53864 | -142.20920 | 39459 ft | 475 kts | 137° |
| 2026-04-24 00:10 | 57.49419 | -142.11984 | 39461 ft | 475 kts | 137° |
| 2026-04-24 00:10 | 57.44931 | -142.02998 | 39463 ft | 475 kts | 137° |
| 2026-04-24 00:11 | 57.40462 | -141.94083 | 39467 ft | 475 kts | 137° |
| 2026-04-24 00:11 | 57.35968 | -141.85153 | 39474 ft | 475 kts | 137° |
| 2026-04-24 00:12 | 57.31479 | -141.76270 | 39500 ft | 477 kts | 137° |
| 2026-04-24 00:12 | 57.26965 | -141.67371 | 39500 ft | 479 kts | 137° |
| 2026-04-24 00:13 | 57.22399 | -141.58401 | 39471 ft | 479 kts | 137° |
| 2026-04-24 00:13 | 57.17848 | -141.49497 | 39471 ft | 480 kts | 137° |
| 2026-04-24 00:14 | 57.13432 | -141.40889 | 39475 ft | 480 kts | 136° |
| 2026-04-24 00:14 | 57.08859 | -141.32008 | 39464 ft | 480 kts | 137° |
| 2026-04-24 00:15 | 57.04289 | -141.23169 | 39458 ft | 480 kts | 137° |
| 2026-04-24 00:15 | 56.99685 | -141.14296 | 39458 ft | 480 kts | 137° |
| 2026-04-24 00:16 | 56.95104 | -141.05502 | 39459 ft | 480 kts | 137° |
| 2026-04-24 00:16 | 56.90517 | -140.96732 | 39460 ft | 480 kts | 137° |
| 2026-04-24 00:17 | 56.85898 | -140.87932 | 39463 ft | 480 kts | 137° |
| 2026-04-24 00:17 | 56.81290 | -140.79185 | 39466 ft | 480 kts | 136° |
| 2026-04-24 00:18 | 56.76679 | -140.70468 | 39461 ft | 481 kts | 136° |
| 2026-04-24 00:18 | 56.72058 | -140.61766 | 39443 ft | 481 kts | 136° |
| 2026-04-24 00:19 | 56.67399 | -140.53023 | 39435 ft | 481 kts | 136° |
| 2026-04-24 00:19 | 56.62761 | -140.44353 | 39442 ft | 482 kts | 136° |
| 2026-04-24 00:20 | 56.58114 | -140.35698 | 39449 ft | 482 kts | 136° |
| 2026-04-24 00:20 | 56.53465 | -140.27071 | 39445 ft | 481 kts | 137° |
| 2026-04-24 00:21 | 56.48806 | -140.18459 | 39445 ft | 481 kts | 137° |
| 2026-04-24 00:21 | 56.44115 | -140.09819 | 39446 ft | 481 kts | 136° |
| 2026-04-24 00:22 | 56.39442 | -140.01248 | 39446 ft | 481 kts | 136° |
| 2026-04-24 00:22 | 56.34759 | -139.92690 | 39447 ft | 482 kts | 136° |
| 2026-04-24 00:23 | 56.30077 | -139.84161 | 39446 ft | 482 kts | 136° |
| 2026-04-24 00:23 | 56.25355 | -139.75594 | 39447 ft | 482 kts | 136° |
| 2026-04-24 00:24 | 56.20657 | -139.67099 | 39448 ft | 482 kts | 136° |
| 2026-04-24 00:24 | 56.15951 | -139.58624 | 39449 ft | 482 kts | 136° |
| 2026-04-24 00:25 | 56.11236 | -139.50163 | 39463 ft | 482 kts | 136° |
| 2026-04-24 00:25 | 56.06511 | -139.41716 | 39495 ft | 482 kts | 136° |
| 2026-04-24 00:26 | 56.01755 | -139.33244 | 39515 ft | 483 kts | 137° |
| 2026-04-24 00:26 | 55.97025 | -139.24850 | 39514 ft | 482 kts | 137° |
| 2026-04-24 00:27 | 55.92290 | -139.16476 | 39503 ft | 482 kts | 137° |
| 2026-04-24 00:27 | 55.87551 | -139.08127 | 39501 ft | 481 kts | 137° |
| 2026-04-24 00:28 | 55.82807 | -138.99803 | 39508 ft | 481 kts | 136° |
| 2026-04-24 00:28 | 55.78072 | -138.91519 | 39508 ft | 481 kts | 136° |
| 2026-04-24 00:29 | 55.73301 | -138.83203 | 39508 ft | 481 kts | 136° |
| 2026-04-24 00:29 | 55.68543 | -138.74942 | 39509 ft | 481 kts | 136° |
| 2026-04-24 00:30 | 55.63753 | -138.66653 | 39509 ft | 482 kts | 136° |
| 2026-04-24 00:30 | 55.58966 | -138.58400 | 39508 ft | 483 kts | 136° |
| 2026-04-24 00:31 | 55.54184 | -138.50185 | 39508 ft | 483 kts | 136° |
| 2026-04-24 00:31 | 55.49395 | -138.41988 | 39508 ft | 483 kts | 136° |
| 2026-04-24 00:32 | 55.44570 | -138.33758 | 39507 ft | 483 kts | 137° |
| 2026-04-24 00:32 | 55.39764 | -138.25591 | 39505 ft | 483 kts | 137° |
| 2026-04-24 00:33 | 55.34959 | -138.17454 | 39504 ft | 483 kts | 137° |
| 2026-04-24 00:33 | 55.30122 | -138.09294 | 39504 ft | 483 kts | 137° |
| 2026-04-24 00:34 | 55.25297 | -138.01180 | 39505 ft | 483 kts | 137° |
| 2026-04-24 00:34 | 55.20460 | -137.93074 | 39509 ft | 482 kts | 137° |
| 2026-04-24 00:35 | 55.15658 | -137.85056 | 39505 ft | 482 kts | 137° |
| 2026-04-24 00:35 | 55.10800 | -137.76975 | 39505 ft | 482 kts | 137° |
| 2026-04-24 00:36 | 55.05972 | -137.68970 | 39510 ft | 482 kts | 137° |
| 2026-04-24 00:36 | 55.01265 | -137.61192 | 39510 ft | 481 kts | 137° |
| 2026-04-24 00:37 | 54.96483 | -137.53319 | 39510 ft | 481 kts | 137° |
| 2026-04-24 00:37 | 54.91684 | -137.45445 | 39510 ft | 481 kts | 137° |
| 2026-04-24 00:38 | 54.86830 | -137.37508 | 39508 ft | 481 kts | 137° |
| 2026-04-24 00:38 | 54.82242 | -137.30029 | 39504 ft | 481 kts | 137° |
| 2026-04-24 00:39 | 54.77365 | -137.22108 | 39504 ft | 481 kts | 137° |
| 2026-04-24 00:39 | 54.72494 | -137.14224 | 39504 ft | 480 kts | 137° |
| 2026-04-24 00:40 | 54.67628 | -137.06375 | 39505 ft | 480 kts | 137° |
| 2026-04-24 00:40 | 54.62746 | -136.98526 | 39505 ft | 479 kts | 137° |
| 2026-04-24 00:41 | 54.57895 | -136.90759 | 39506 ft | 479 kts | 137° |
| 2026-04-24 00:41 | 54.53035 | -136.82997 | 39505 ft | 479 kts | 137° |
| 2026-04-24 00:42 | 54.48133 | -136.75198 | 39505 ft | 479 kts | 137° |
| 2026-04-24 00:42 | 54.43276 | -136.67497 | 39505 ft | 478 kts | 137° |
| 2026-04-24 00:43 | 54.38384 | -136.59766 | 39505 ft | 478 kts | 137° |
| 2026-04-24 00:43 | 54.33493 | -136.52061 | 39504 ft | 478 kts | 137° |
| 2026-04-24 00:44 | 54.28629 | -136.44428 | 39504 ft | 478 kts | 137° |
| 2026-04-24 00:44 | 54.23722 | -136.36749 | 39503 ft | 478 kts | 137° |
| 2026-04-24 00:45 | 54.18860 | -136.29169 | 39500 ft | 477 kts | 138° |
| 2026-04-24 00:45 | 54.13953 | -136.21544 | 39500 ft | 477 kts | 138° |
| 2026-04-24 00:46 | 54.09074 | -136.13988 | 39499 ft | 476 kts | 138° |
| 2026-04-24 00:46 | 54.04168 | -136.06415 | 39499 ft | 476 kts | 138° |
| 2026-04-24 00:47 | 53.99139 | -135.99254 | 39497 ft | 476 kts | 144° |
| 2026-04-24 00:47 | 53.93809 | -135.92708 | 39484 ft | 475 kts | 144° |
| 2026-04-24 00:48 | 53.88444 | -135.86212 | 39474 ft | 475 kts | 144° |
| 2026-04-24 00:48 | 53.83076 | -135.79767 | 39471 ft | 475 kts | 144° |
| 2026-04-24 00:49 | 53.77684 | -135.73329 | 39469 ft | 475 kts | 145° |
| 2026-04-24 00:49 | 53.72279 | -135.66910 | 39464 ft | 475 kts | 145° |
| 2026-04-24 00:50 | 53.66902 | -135.60547 | 39461 ft | 475 kts | 145° |
| 2026-04-24 00:50 | 53.61488 | -135.54163 | 39461 ft | 474 kts | 145° |
| 2026-04-24 00:51 | 53.56104 | -135.47836 | 39461 ft | 474 kts | 145° |
| 2026-04-24 00:51 | 53.50726 | -135.41536 | 39461 ft | 474 kts | 145° |
| 2026-04-24 00:52 | 53.45314 | -135.35216 | 39460 ft | 474 kts | 145° |
| 2026-04-24 00:52 | 53.39932 | -135.28952 | 39458 ft | 474 kts | 146° |
| 2026-04-24 00:53 | 53.34508 | -135.22661 | 39458 ft | 474 kts | 146° |
| 2026-04-24 00:53 | 53.29127 | -135.16437 | 39461 ft | 474 kts | 146° |
| 2026-04-24 00:54 | 53.23724 | -135.10208 | 39461 ft | 474 kts | 146° |
| 2026-04-24 00:54 | 53.18298 | -135.03970 | 39456 ft | 473 kts | 146° |
| 2026-04-24 00:55 | 53.12917 | -134.97806 | 39451 ft | 473 kts | 146° |
| 2026-04-24 00:55 | 53.07505 | -134.91625 | 39450 ft | 473 kts | 146° |
| 2026-04-24 00:56 | 53.02109 | -134.85480 | 39451 ft | 473 kts | 146° |
| 2026-04-24 00:56 | 52.96688 | -134.79327 | 39455 ft | 473 kts | 146° |
| 2026-04-24 00:57 | 52.91292 | -134.73224 | 39458 ft | 473 kts | 146° |
| 2026-04-24 00:58 | 52.83150 | -134.64050 | 39454 ft | 473 kts | 146° |
| 2026-04-24 00:58 | 52.77741 | -134.57979 | 39453 ft | 472 kts | 146° |
| 2026-04-24 00:59 | 52.72349 | -134.51944 | 39452 ft | 472 kts | 146° |
| 2026-04-24 00:59 | 52.66929 | -134.45898 | 39452 ft | 472 kts | 146° |
| 2026-04-24 01:00 | 52.61504 | -134.39862 | 39450 ft | 471 kts | 146° |
| 2026-04-24 01:00 | 52.56089 | -134.33858 | 39437 ft | 471 kts | 147° |
| 2026-04-24 01:01 | 52.50677 | -134.27876 | 39420 ft | 471 kts | 147° |
| 2026-04-24 01:01 | 52.45244 | -134.21887 | 39417 ft | 472 kts | 147° |
| 2026-04-24 01:02 | 52.39827 | -134.15933 | 39417 ft | 472 kts | 147° |
| 2026-04-24 01:02 | 52.34371 | -134.09956 | 39417 ft | 471 kts | 147° |
| 2026-04-24 01:03 | 52.28972 | -134.04059 | 39417 ft | 471 kts | 147° |
| 2026-04-24 01:03 | 52.23521 | -133.98123 | 39419 ft | 471 kts | 147° |
| 2026-04-24 01:04 | 52.18106 | -133.92244 | 39423 ft | 471 kts | 147° |
| 2026-04-24 01:04 | 52.12661 | -133.86350 | 39423 ft | 471 kts | 147° |
| 2026-04-24 01:05 | 52.07238 | -133.80496 | 39421 ft | 471 kts | 147° |
| 2026-04-24 01:05 | 52.01788 | -133.74632 | 39421 ft | 471 kts | 147° |
| 2026-04-24 01:06 | 51.96330 | -133.68774 | 39421 ft | 471 kts | 147° |
| 2026-04-24 01:06 | 51.90908 | -133.62972 | 39421 ft | 471 kts | 147° |
| 2026-04-24 01:07 | 51.85451 | -133.57150 | 39418 ft | 471 kts | 147° |
| 2026-04-24 01:07 | 51.80014 | -133.51366 | 39418 ft | 471 kts | 147° |
| 2026-04-24 01:08 | 51.74542 | -133.45563 | 39417 ft | 471 kts | 147° |
| 2026-04-24 01:08 | 51.69103 | -133.39810 | 39417 ft | 471 kts | 147° |
| 2026-04-24 01:09 | 51.63609 | -133.34018 | 39415 ft | 472 kts | 148° |
| 2026-04-24 01:09 | 51.58242 | -133.28375 | 39413 ft | 471 kts | 148° |
| 2026-04-24 01:10 | 51.52750 | -133.22617 | 39412 ft | 471 kts | 148° |
| 2026-04-24 01:10 | 51.47265 | -133.16882 | 39411 ft | 471 kts | 148° |
| 2026-04-24 01:11 | 51.41799 | -133.11185 | 39409 ft | 471 kts | 148° |
| 2026-04-24 01:11 | 51.36333 | -133.05505 | 39404 ft | 471 kts | 148° |
| 2026-04-24 01:12 | 51.30837 | -132.99809 | 39399 ft | 471 kts | 148° |
| 2026-04-24 01:12 | 51.25368 | -132.94159 | 39397 ft | 471 kts | 148° |
| 2026-04-24 01:13 | 51.19869 | -132.88493 | 39396 ft | 471 kts | 148° |
| 2026-04-24 01:13 | 51.14361 | -132.82834 | 39395 ft | 471 kts | 148° |
| 2026-04-24 01:14 | 51.08888 | -132.77228 | 39393 ft | 471 kts | 148° |
| 2026-04-24 01:14 | 51.03375 | -132.71597 | 39392 ft | 471 kts | 148° |
| 2026-04-24 01:15 | 50.97890 | -132.66014 | 39391 ft | 471 kts | 148° |
| 2026-04-24 01:15 | 50.92390 | -132.60442 | 39389 ft | 471 kts | 148° |
| 2026-04-24 01:16 | 50.86865 | -132.54857 | 39386 ft | 471 kts | 148° |
| 2026-04-24 01:16 | 50.81366 | -132.49318 | 39386 ft | 471 kts | 148° |
| 2026-04-24 01:17 | 50.75850 | -132.43776 | 39388 ft | 470 kts | 148° |
| 2026-04-24 01:17 | 50.70361 | -132.38275 | 39389 ft | 470 kts | 148° |
| 2026-04-24 01:18 | 50.64838 | -132.32758 | 39388 ft | 470 kts | 148° |
| 2026-04-24 01:18 | 50.59354 | -132.27293 | 39392 ft | 469 kts | 148° |
| 2026-04-24 01:19 | 50.53832 | -132.21808 | 39397 ft | 469 kts | 148° |
| 2026-04-24 01:19 | 50.48351 | -132.16377 | 39396 ft | 468 kts | 148° |
| 2026-04-24 01:20 | 50.42871 | -132.10965 | 39395 ft | 468 kts | 148° |
| 2026-04-24 01:20 | 50.37359 | -132.05534 | 39397 ft | 468 kts | 148° |
| 2026-04-24 01:21 | 50.31885 | -132.00156 | 39401 ft | 468 kts | 148° |
| 2026-04-24 01:21 | 50.26376 | -131.94757 | 39400 ft | 467 kts | 148° |
| 2026-04-24 01:22 | 50.20908 | -131.89412 | 39398 ft | 467 kts | 148° |
| 2026-04-24 01:22 | 50.15341 | -131.84244 | 39396 ft | 467 kts | 150° |
| 2026-04-24 01:23 | 50.09752 | -131.79242 | 39393 ft | 467 kts | 150° |
| 2026-04-24 01:23 | 50.04144 | -131.74222 | 39380 ft | 467 kts | 150° |
| 2026-04-24 01:24 | 49.98521 | -131.69202 | 39365 ft | 467 kts | 151° |
| 2026-04-24 01:24 | 49.92906 | -131.64249 | 39344 ft | 467 kts | 151° |
| 2026-04-24 01:25 | 49.87243 | -131.59265 | 39320 ft | 467 kts | 151° |
| 2026-04-24 01:25 | 49.81639 | -131.54343 | 39315 ft | 467 kts | 150° |
| 2026-04-24 01:26 | 49.75995 | -131.49397 | 39315 ft | 466 kts | 150° |
| 2026-04-24 01:26 | 49.70375 | -131.44485 | 39314 ft | 466 kts | 150° |
| 2026-04-24 01:27 | 49.64770 | -131.39598 | 39313 ft | 466 kts | 150° |
| 2026-04-24 01:27 | 49.59109 | -131.34677 | 39312 ft | 467 kts | 151° |
| 2026-04-24 01:28 | 49.53478 | -131.29794 | 39309 ft | 467 kts | 151° |
| 2026-04-24 01:28 | 49.47840 | -131.24918 | 39303 ft | 467 kts | 151° |
| 2026-04-24 01:29 | 49.42178 | -131.20035 | 39297 ft | 467 kts | 151° |
| 2026-04-24 01:29 | 49.36536 | -131.15181 | 39296 ft | 467 kts | 151° |
| 2026-04-24 01:30 | 49.30866 | -131.10316 | 39295 ft | 467 kts | 151° |
| 2026-04-24 01:30 | 49.25229 | -131.05493 | 39294 ft | 467 kts | 151° |
| 2026-04-24 01:31 | 49.19555 | -131.00650 | 39293 ft | 467 kts | 151° |
| 2026-04-24 01:31 | 49.13889 | -130.95827 | 39292 ft | 467 kts | 151° |
| 2026-04-24 01:32 | 49.08224 | -130.91019 | 39292 ft | 468 kts | 151° |
| 2026-04-24 01:32 | 49.02557 | -130.86221 | 39294 ft | 468 kts | 151° |
| 2026-04-24 01:33 | 48.96877 | -130.81424 | 39296 ft | 468 kts | 151° |
| 2026-04-24 01:33 | 48.91217 | -130.76659 | 39295 ft | 467 kts | 151° |
| 2026-04-24 01:34 | 48.85557 | -130.71905 | 39292 ft | 467 kts | 151° |
| 2026-04-24 01:34 | 48.79901 | -130.67168 | 39291 ft | 467 kts | 151° |
| 2026-04-24 01:35 | 48.74219 | -130.62421 | 39290 ft | 467 kts | 151° |
| 2026-04-24 01:35 | 48.68539 | -130.57687 | 39289 ft | 467 kts | 150° |
| 2026-04-24 01:36 | 48.62884 | -130.52988 | 39288 ft | 467 kts | 150° |
| 2026-04-24 01:36 | 48.57231 | -130.48300 | 39288 ft | 467 kts | 150° |
| 2026-04-24 01:37 | 48.51534 | -130.43591 | 39287 ft | 467 kts | 150° |
| 2026-04-24 01:37 | 48.45864 | -130.38915 | 39286 ft | 467 kts | 150° |
| 2026-04-24 01:38 | 48.40167 | -130.34229 | 39285 ft | 467 kts | 151° |
| 2026-04-24 01:38 | 48.34495 | -130.29575 | 39284 ft | 467 kts | 151° |
| 2026-04-24 01:39 | 48.28820 | -130.24931 | 39283 ft | 467 kts | 151° |
| 2026-04-24 01:39 | 48.23115 | -130.20274 | 39283 ft | 467 kts | 151° |
| 2026-04-24 01:40 | 48.17442 | -130.15657 | 39282 ft | 467 kts | 151° |
| 2026-04-24 01:40 | 48.11763 | -130.11047 | 39282 ft | 466 kts | 151° |
| 2026-04-24 01:41 | 48.06051 | -130.06421 | 39282 ft | 466 kts | 151° |
| 2026-04-24 01:41 | 48.00361 | -130.01825 | 39280 ft | 467 kts | 151° |
| 2026-04-24 01:42 | 47.94659 | -129.97231 | 39279 ft | 466 kts | 151° |
| 2026-04-24 01:42 | 47.88983 | -129.92670 | 39280 ft | 466 kts | 151° |
| 2026-04-24 01:43 | 47.83265 | -129.88086 | 39280 ft | 466 kts | 151° |
| 2026-04-24 01:43 | 47.77595 | -129.83553 | 39280 ft | 466 kts | 151° |
| 2026-04-24 01:44 | 47.71867 | -129.78984 | 39279 ft | 466 kts | 151° |
| 2026-04-24 01:44 | 47.66188 | -129.74460 | 39278 ft | 466 kts | 151° |
| 2026-04-24 01:45 | 47.60458 | -129.69896 | 39277 ft | 466 kts | 151° |
| 2026-04-24 01:45 | 47.54761 | -129.65370 | 39277 ft | 467 kts | 151° |
| 2026-04-24 01:46 | 47.49072 | -129.60861 | 39276 ft | 467 kts | 151° |
| 2026-04-24 01:46 | 47.43339 | -129.56332 | 39275 ft | 467 kts | 151° |
| 2026-04-24 01:47 | 47.37639 | -129.51839 | 39275 ft | 467 kts | 151° |
| 2026-04-24 01:47 | 47.31909 | -129.47331 | 39274 ft | 467 kts | 151° |
| 2026-04-24 01:48 | 47.26172 | -129.42830 | 39273 ft | 467 kts | 151° |
| 2026-04-24 01:48 | 47.20470 | -129.38367 | 39273 ft | 467 kts | 151° |
| 2026-04-24 01:49 | 47.14752 | -129.33903 | 39272 ft | 468 kts | 152° |
| 2026-04-24 01:49 | 47.08989 | -129.29414 | 39272 ft | 468 kts | 152° |
| 2026-04-24 01:50 | 47.03275 | -129.24977 | 39271 ft | 468 kts | 152° |
| 2026-04-24 01:50 | 46.97530 | -129.20525 | 39263 ft | 467 kts | 151° |
| 2026-04-24 01:51 | 46.91811 | -129.16104 | 39253 ft | 467 kts | 151° |
| 2026-04-24 01:51 | 46.86092 | -129.11694 | 39248 ft | 467 kts | 151° |
| 2026-04-24 01:52 | 46.80364 | -129.07286 | 39248 ft | 467 kts | 151° |
| 2026-04-24 01:52 | 46.74591 | -129.02858 | 39248 ft | 467 kts | 152° |
| 2026-04-24 01:53 | 46.68851 | -128.98476 | 39247 ft | 467 kts | 152° |
| 2026-04-24 01:53 | 46.63129 | -128.94115 | 39247 ft | 467 kts | 152° |
| 2026-04-24 01:54 | 46.57395 | -128.89751 | 39246 ft | 467 kts | 152° |
| 2026-04-24 01:54 | 46.51626 | -128.85370 | 39245 ft | 467 kts | 152° |
| 2026-04-24 01:55 | 46.45884 | -128.81018 | 39243 ft | 467 kts | 152° |
| 2026-04-24 01:55 | 46.40152 | -128.76682 | 39241 ft | 467 kts | 152° |
| 2026-04-24 01:56 | 46.34423 | -128.72359 | 39238 ft | 467 kts | 152° |
| 2026-04-24 01:56 | 46.28646 | -128.68010 | 39238 ft | 467 kts | 152° |
| 2026-04-24 01:57 | 46.22920 | -128.63707 | 39238 ft | 467 kts | 152° |
| 2026-04-24 01:57 | 46.17190 | -128.59412 | 39237 ft | 467 kts | 152° |
| 2026-04-24 01:58 | 46.11449 | -128.55121 | 39237 ft | 467 kts | 152° |
| 2026-04-24 01:58 | 46.05682 | -128.50819 | 39243 ft | 467 kts | 152° |
| 2026-04-24 01:59 | 45.99931 | -128.46541 | 39251 ft | 467 kts | 152° |
| 2026-04-24 01:59 | 45.94183 | -128.42274 | 39252 ft | 467 kts | 152° |
| 2026-04-24 02:00 | 45.88435 | -128.38017 | 39243 ft | 467 kts | 151° |
| 2026-04-24 02:00 | 45.82684 | -128.33758 | 39239 ft | 467 kts | 152° |
| 2026-04-24 02:01 | 45.76922 | -128.29504 | 39248 ft | 467 kts | 152° |
| 2026-04-24 02:01 | 45.71150 | -128.25258 | 39252 ft | 466 kts | 152° |
| 2026-04-24 02:02 | 45.65397 | -128.21036 | 39249 ft | 466 kts | 152° |
| 2026-04-24 02:02 | 45.59649 | -128.16829 | 39247 ft | 466 kts | 152° |
| 2026-04-24 02:03 | 45.50983 | -128.10504 | 39243 ft | 466 kts | 152° |
| 2026-04-24 02:03 | 45.45229 | -128.06317 | 39237 ft | 466 kts | 152° |
| 2026-04-24 02:04 | 45.39468 | -128.02136 | 39229 ft | 466 kts | 152° |
| 2026-04-24 02:04 | 45.33697 | -127.97955 | 39226 ft | 466 kts | 152° |
| 2026-04-24 02:05 | 45.27927 | -127.93787 | 39224 ft | 467 kts | 152° |
| 2026-04-24 02:05 | 45.22166 | -127.89634 | 39226 ft | 467 kts | 152° |
| 2026-04-24 02:06 | 45.16344 | -127.85445 | 39225 ft | 467 kts | 152° |
| 2026-04-24 02:06 | 45.10551 | -127.81289 | 39225 ft | 468 kts | 152° |
| 2026-04-24 02:07 | 45.04694 | -127.77095 | 39225 ft | 468 kts | 152° |
| 2026-04-24 02:07 | 44.98894 | -127.72952 | 39225 ft | 468 kts | 152° |
| 2026-04-24 02:08 | 44.93057 | -127.68791 | 39225 ft | 468 kts | 152° |
| 2026-04-24 02:08 | 44.87241 | -127.64655 | 39222 ft | 468 kts | 152° |
| 2026-04-24 02:09 | 44.81403 | -127.60514 | 39223 ft | 468 kts | 152° |
| 2026-04-24 02:09 | 44.75515 | -127.56347 | 39223 ft | 468 kts | 152° |
| 2026-04-24 02:10 | 44.69693 | -127.52236 | 39222 ft | 468 kts | 152° |
| 2026-04-24 02:10 | 44.63887 | -127.48144 | 39217 ft | 469 kts | 152° |
| 2026-04-24 02:11 | 44.58018 | -127.44019 | 39215 ft | 468 kts | 152° |
| 2026-04-24 02:11 | 44.52144 | -127.39898 | 39212 ft | 468 kts | 152° |
| 2026-04-24 02:12 | 44.46333 | -127.35831 | 39215 ft | 468 kts | 152° |
| 2026-04-24 02:12 | 44.40467 | -127.31735 | 39220 ft | 468 kts | 153° |
| 2026-04-24 02:13 | 44.34625 | -127.27664 | 39230 ft | 469 kts | 153° |
| 2026-04-24 02:13 | 44.28755 | -127.23584 | 39241 ft | 469 kts | 153° |
| 2026-04-24 02:14 | 44.22884 | -127.19512 | 39248 ft | 469 kts | 153° |
| 2026-04-24 02:14 | 44.17032 | -127.15463 | 39248 ft | 469 kts | 153° |
| 2026-04-24 02:15 | 44.11183 | -127.11424 | 39248 ft | 469 kts | 153° |
| 2026-04-24 02:15 | 44.05315 | -127.07381 | 39249 ft | 469 kts | 153° |
| 2026-04-24 02:16 | 43.99498 | -127.03382 | 39249 ft | 470 kts | 153° |
| 2026-04-24 02:16 | 43.93636 | -126.99361 | 39249 ft | 470 kts | 153° |
| 2026-04-24 02:17 | 43.87765 | -126.95342 | 39205 ft | 471 kts | 153° |
| 2026-04-24 02:17 | 43.81885 | -126.91328 | 39194 ft | 472 kts | 154° |
| 2026-04-24 02:18 | 43.75966 | -126.87294 | 39231 ft | 473 kts | 154° |
| 2026-04-24 02:18 | 43.70106 | -126.83311 | 39233 ft | 472 kts | 154° |
| 2026-04-24 02:19 | 43.64202 | -126.79305 | 39231 ft | 473 kts | 154° |
| 2026-04-24 02:19 | 43.58276 | -126.75294 | 39232 ft | 473 kts | 154° |
| 2026-04-24 02:20 | 43.52362 | -126.71300 | 39232 ft | 473 kts | 154° |
| 2026-04-24 02:20 | 43.46445 | -126.67312 | 39232 ft | 473 kts | 154° |
| 2026-04-24 02:21 | 43.40522 | -126.63341 | 39231 ft | 473 kts | 154° |
| 2026-04-24 02:21 | 43.34599 | -126.59397 | 39232 ft | 474 kts | 154° |
| 2026-04-24 02:22 | 43.28674 | -126.55460 | 39224 ft | 474 kts | 154° |
| 2026-04-24 02:22 | 43.22734 | -126.51521 | 39212 ft | 473 kts | 154° |
| 2026-04-24 02:23 | 43.16825 | -126.47611 | 39206 ft | 474 kts | 154° |
| 2026-04-24 02:23 | 43.10875 | -126.43681 | 39205 ft | 474 kts | 154° |
| 2026-04-24 02:24 | 43.04935 | -126.39768 | 39203 ft | 475 kts | 155° |
| 2026-04-24 02:24 | 42.98972 | -126.35847 | 39203 ft | 475 kts | 155° |
| 2026-04-24 02:25 | 42.93010 | -126.31935 | 39198 ft | 475 kts | 156° |
| 2026-04-24 02:25 | 42.87040 | -126.28026 | 39195 ft | 475 kts | 156° |
| 2026-04-24 02:26 | 42.81070 | -126.24126 | 39194 ft | 476 kts | 156° |
| 2026-04-24 02:26 | 42.75129 | -126.20253 | 39192 ft | 476 kts | 156° |
| 2026-04-24 02:27 | 42.69364 | -126.15745 | 39193 ft | 479 kts | 146° |
| 2026-04-24 02:27 | 42.63970 | -126.10418 | 39190 ft | 479 kts | 146° |
| 2026-04-24 02:28 | 42.58562 | -126.05073 | 39189 ft | 480 kts | 146° |
| 2026-04-24 02:28 | 42.53167 | -125.99764 | 39188 ft | 481 kts | 146° |
| 2026-04-24 02:29 | 42.47763 | -125.94464 | 39188 ft | 481 kts | 146° |
| 2026-04-24 02:29 | 42.42337 | -125.89152 | 39194 ft | 487 kts | 147° |
| 2026-04-24 02:30 | 42.39560 | -125.86439 | 39495 ft | 492 kts | 147° |
| 2026-04-24 02:30 | 42.36811 | -125.83755 | 40243 ft | 486 kts | 147° |
| 2026-04-24 02:30 | 42.34081 | -125.81094 | 40948 ft | 481 kts | 147° |
| 2026-04-24 02:30 | 42.31397 | -125.78480 | 41170 ft | 486 kts | 147° |
| 2026-04-24 02:31 | 42.25888 | -125.73122 | 41145 ft | 484 kts | 147° |
| 2026-04-24 02:31 | 42.20449 | -125.67844 | 41125 ft | 484 kts | 147° |
| 2026-04-24 02:32 | 42.14994 | -125.62563 | 41140 ft | 484 kts | 147° |
| 2026-04-24 02:32 | 42.09533 | -125.57284 | 41140 ft | 484 kts | 147° |
| 2026-04-24 02:33 | 42.04073 | -125.52016 | 41142 ft | 484 kts | 147° |
| 2026-04-24 02:33 | 41.98595 | -125.46744 | 41141 ft | 484 kts | 147° |
| 2026-04-24 02:34 | 41.93143 | -125.41509 | 41148 ft | 484 kts | 147° |
| 2026-04-24 02:34 | 41.87633 | -125.36228 | 41154 ft | 485 kts | 147° |
| 2026-04-24 02:35 | 41.82125 | -125.30961 | 41151 ft | 485 kts | 148° |
| 2026-04-24 02:35 | 41.76635 | -125.25723 | 41151 ft | 485 kts | 148° |
| 2026-04-24 02:36 | 41.71138 | -125.20489 | 41149 ft | 485 kts | 148° |
| 2026-04-24 02:36 | 41.65653 | -125.15278 | 41146 ft | 486 kts | 148° |
| 2026-04-24 02:37 | 41.60137 | -125.10048 | 41148 ft | 486 kts | 148° |
| 2026-04-24 02:37 | 41.54632 | -125.04839 | 41154 ft | 486 kts | 148° |
| 2026-04-24 02:38 | 41.49077 | -124.99593 | 41155 ft | 486 kts | 148° |
| 2026-04-24 02:38 | 41.43539 | -124.94374 | 41155 ft | 486 kts | 148° |
| 2026-04-24 02:39 | 41.38021 | -124.89186 | 41155 ft | 486 kts | 148° |
| 2026-04-24 02:39 | 41.32523 | -124.84028 | 41155 ft | 487 kts | 148° |
| 2026-04-24 02:40 | 41.26986 | -124.78845 | 41155 ft | 487 kts | 148° |
| 2026-04-24 02:40 | 41.21480 | -124.73701 | 41155 ft | 487 kts | 148° |
| 2026-04-24 02:41 | 41.15930 | -124.68527 | 41156 ft | 487 kts | 148° |
| 2026-04-24 02:41 | 41.10398 | -124.63380 | 41156 ft | 487 kts | 148° |
| 2026-04-24 02:42 | 41.04867 | -124.58247 | 41157 ft | 487 kts | 148° |
| 2026-04-24 02:42 | 40.99303 | -124.53091 | 41157 ft | 488 kts | 148° |
| 2026-04-24 02:43 | 40.93745 | -124.47952 | 41156 ft | 487 kts | 148° |
| 2026-04-24 02:43 | 40.88190 | -124.42827 | 41155 ft | 487 kts | 148° |
| 2026-04-24 02:44 | 40.82635 | -124.37714 | 41155 ft | 487 kts | 148° |
| 2026-04-24 02:44 | 40.77067 | -124.32600 | 41147 ft | 487 kts | 149° |
| 2026-04-24 02:45 | 40.71635 | -124.27611 | 41146 ft | 487 kts | 149° |
| 2026-04-24 02:45 | 40.65945 | -124.22833 | 41143 ft | 482 kts | 158° |
| 2026-04-24 02:46 | 40.59905 | -124.19087 | 41139 ft | 481 kts | 159° |
| 2026-04-24 02:46 | 40.53812 | -124.15374 | 41137 ft | 481 kts | 159° |
| 2026-04-24 02:47 | 40.47713 | -124.11672 | 41139 ft | 481 kts | 159° |
| 2026-04-24 02:47 | 40.41648 | -124.08002 | 41142 ft | 482 kts | 159° |
| 2026-04-24 02:48 | 40.35544 | -124.04316 | 41149 ft | 481 kts | 159° |
| 2026-04-24 02:48 | 40.29471 | -124.00657 | 41161 ft | 481 kts | 159° |
| 2026-04-24 02:49 | 40.23404 | -123.97010 | 41163 ft | 481 kts | 160° |
| 2026-04-24 02:49 | 40.17343 | -123.93374 | 41155 ft | 482 kts | 160° |
| 2026-04-24 02:50 | 40.11225 | -123.89711 | 41148 ft | 482 kts | 160° |
| 2026-04-24 02:50 | 40.05176 | -123.86097 | 41143 ft | 482 kts | 160° |
| 2026-04-24 02:51 | 39.99050 | -123.82443 | 41132 ft | 482 kts | 160° |
| 2026-04-24 02:51 | 39.92964 | -123.78822 | 41119 ft | 481 kts | 160° |
| 2026-04-24 02:52 | 39.86835 | -123.75181 | 41115 ft | 481 kts | 160° |
| 2026-04-24 02:52 | 39.80711 | -123.71550 | 41096 ft | 482 kts | 160° |
| 2026-04-24 02:53 | 39.74599 | -123.67934 | 41039 ft | 482 kts | 160° |
| 2026-04-24 02:53 | 39.68500 | -123.64333 | 41077 ft | 482 kts | 160° |
| 2026-04-24 02:54 | 39.62370 | -123.60720 | 41104 ft | 482 kts | 160° |
| 2026-04-24 02:54 | 39.56275 | -123.57134 | 41102 ft | 482 kts | 160° |
| 2026-04-24 02:55 | 39.50217 | -123.53578 | 41101 ft | 482 kts | 160° |
| 2026-04-24 02:55 | 39.44103 | -123.49996 | 41100 ft | 482 kts | 160° |
| 2026-04-24 02:56 | 39.38018 | -123.46437 | 41099 ft | 482 kts | 160° |
| 2026-04-24 02:56 | 39.31872 | -123.42851 | 41097 ft | 482 kts | 160° |
| 2026-04-24 02:57 | 39.25796 | -123.39311 | 41093 ft | 482 kts | 160° |
| 2026-04-24 02:57 | 39.19695 | -123.35764 | 41089 ft | 482 kts | 160° |
| 2026-04-24 02:58 | 39.13544 | -123.32194 | 41074 ft | 481 kts | 161° |
| 2026-04-24 02:58 | 39.07404 | -123.28634 | 41065 ft | 482 kts | 160° |
| 2026-04-24 02:59 | 39.01700 | -123.23907 | 41063 ft | 492 kts | 147° |
| 2026-04-24 02:59 | 38.96280 | -123.18526 | 41066 ft | 492 kts | 147° |
| 2026-04-24 03:00 | 38.90877 | -123.13174 | 41070 ft | 492 kts | 147° |
| 2026-04-24 03:00 | 38.85402 | -123.07771 | 41068 ft | 492 kts | 147° |
| 2026-04-24 03:01 | 38.80000 | -123.02454 | 41059 ft | 492 kts | 147° |
| 2026-04-24 03:01 | 38.74535 | -122.97090 | 41049 ft | 492 kts | 147° |
| 2026-04-24 03:02 | 38.69077 | -122.91744 | 41060 ft | 492 kts | 147° |
| 2026-04-24 03:02 | 38.63634 | -122.86424 | 41068 ft | 493 kts | 147° |
| 2026-04-24 03:03 | 38.58185 | -122.81110 | 41066 ft | 493 kts | 147° |
| 2026-04-24 03:03 | 38.52772 | -122.75840 | 41061 ft | 493 kts | 147° |
| 2026-04-24 03:04 | 38.47290 | -122.70513 | 41057 ft | 493 kts | 147° |
| 2026-04-24 03:04 | 38.41840 | -122.65228 | 41059 ft | 494 kts | 147° |
| 2026-04-24 03:05 | 38.36379 | -122.59943 | 41064 ft | 494 kts | 147° |
| 2026-04-24 03:05 | 38.30907 | -122.54658 | 41068 ft | 494 kts | 147° |
| 2026-04-24 03:06 | 38.25434 | -122.49381 | 41074 ft | 494 kts | 148° |
| 2026-04-24 03:06 | 38.19958 | -122.44113 | 41080 ft | 495 kts | 148° |
| 2026-04-24 03:07 | 38.14454 | -122.38827 | 41077 ft | 495 kts | 148° |
| 2026-04-24 03:07 | 38.08975 | -122.33576 | 41062 ft | 494 kts | 148° |
| 2026-04-24 03:08 | 38.00715 | -122.25679 | 41054 ft | 495 kts | 148° |
| 2026-04-24 03:09 | 37.95208 | -122.20426 | 41054 ft | 495 kts | 148° |
| 2026-04-24 03:09 | 37.89720 | -122.15201 | 41058 ft | 495 kts | 148° |
| 2026-04-24 03:10 | 37.84155 | -122.09914 | 41064 ft | 495 kts | 148° |
| 2026-04-24 03:10 | 37.78680 | -122.04721 | 41072 ft | 495 kts | 148° |
| 2026-04-24 03:11 | 37.73126 | -121.99464 | 41079 ft | 495 kts | 148° |
| 2026-04-24 03:11 | 37.67597 | -121.94241 | 41070 ft | 495 kts | 148° |
| 2026-04-24 03:12 | 37.62088 | -121.89045 | 41074 ft | 494 kts | 148° |
| 2026-04-24 03:12 | 37.56604 | -121.83884 | 41075 ft | 493 kts | 148° |
| 2026-04-24 03:13 | 37.51077 | -121.78692 | 41072 ft | 492 kts | 148° |
| 2026-04-24 03:13 | 37.45603 | -121.73560 | 41079 ft | 493 kts | 148° |
| 2026-04-24 03:14 | 37.40119 | -121.68427 | 41083 ft | 492 kts | 148° |
| 2026-04-24 03:14 | 37.34611 | -121.63283 | 41067 ft | 492 kts | 148° |
| 2026-04-24 03:15 | 37.29125 | -121.58167 | 41015 ft | 492 kts | 148° |
| 2026-04-24 03:15 | 37.23614 | -121.53039 | 40909 ft | 492 kts | 148° |
| 2026-04-24 03:16 | 37.18124 | -121.47939 | 40974 ft | 492 kts | 148° |
| 2026-04-24 03:16 | 37.12619 | -121.42834 | 41105 ft | 493 kts | 148° |
| 2026-04-24 03:17 | 37.07111 | -121.37737 | 41099 ft | 492 kts | 148° |
| 2026-04-24 03:17 | 37.01636 | -121.32679 | 41081 ft | 491 kts | 149° |
| 2026-04-24 03:18 | 36.96123 | -121.27596 | 41084 ft | 491 kts | 149° |
| 2026-04-24 03:18 | 36.90634 | -121.22544 | 41078 ft | 491 kts | 149° |
| 2026-04-24 03:19 | 36.85097 | -121.17458 | 41081 ft | 491 kts | 149° |
| 2026-04-24 03:19 | 36.79607 | -121.12423 | 41014 ft | 491 kts | 149° |
| 2026-04-24 03:19 | 36.76834 | -121.09885 | 40903 ft | 491 kts | 149° |
| 2026-04-24 03:20 | 36.74092 | -121.07375 | 40703 ft | 492 kts | 149° |
| 2026-04-24 03:20 | 36.71350 | -121.04868 | 40538 ft | 490 kts | 149° |
| 2026-04-24 03:20 | 36.68621 | -121.02376 | 40424 ft | 490 kts | 149° |
| 2026-04-24 03:21 | 36.63098 | -120.97338 | 40385 ft | 488 kts | 149° |
| 2026-04-24 03:21 | 36.60340 | -120.94827 | 40549 ft | 492 kts | 149° |
| 2026-04-24 03:21 | 36.57572 | -120.92310 | 40660 ft | 492 kts | 149° |
| 2026-04-24 03:22 | 36.52078 | -120.87316 | 40744 ft | 492 kts | 149° |
| 2026-04-24 03:22 | 36.46557 | -120.82307 | 40757 ft | 490 kts | 149° |
| 2026-04-24 03:23 | 36.41032 | -120.77305 | 40871 ft | 490 kts | 150° |
| 2026-04-24 03:23 | 36.35509 | -120.72314 | 41036 ft | 491 kts | 149° |
| 2026-04-24 03:24 | 36.29985 | -120.67330 | 41109 ft | 491 kts | 150° |
| 2026-04-24 03:24 | 36.24478 | -120.62369 | 41103 ft | 490 kts | 150° |
| 2026-04-24 03:25 | 36.18933 | -120.57386 | 41073 ft | 491 kts | 150° |
| 2026-04-24 03:25 | 36.13418 | -120.52437 | 40968 ft | 491 kts | 150° |
| 2026-04-24 03:25 | 36.10644 | -120.49950 | 40852 ft | 491 kts | 150° |
| 2026-04-24 03:26 | 36.07908 | -120.47500 | 40780 ft | 490 kts | 150° |
| 2026-04-24 03:26 | 36.02393 | -120.42570 | 40786 ft | 491 kts | 150° |
| 2026-04-24 03:27 | 35.96857 | -120.37627 | 40888 ft | 490 kts | 150° |
| 2026-04-24 03:27 | 35.91310 | -120.32684 | 41035 ft | 490 kts | 151° |
| 2026-04-24 03:28 | 35.85779 | -120.27764 | 41063 ft | 490 kts | 151° |
| 2026-04-24 03:28 | 35.80249 | -120.22854 | 41063 ft | 490 kts | 151° |
| 2026-04-24 03:29 | 35.74692 | -120.17930 | 41063 ft | 490 kts | 151° |
| 2026-04-24 03:29 | 35.69167 | -120.13041 | 41061 ft | 490 kts | 151° |
| 2026-04-24 03:30 | 35.63546 | -120.08463 | 41062 ft | 486 kts | 155° |
| 2026-04-24 03:30 | 35.57797 | -120.04125 | 41067 ft | 486 kts | 155° |
| 2026-04-24 03:31 | 35.52013 | -119.99770 | 40990 ft | 486 kts | 155° |
| 2026-04-24 03:31 | 35.49138 | -119.97606 | 40878 ft | 482 kts | 155° |
| 2026-04-24 03:31 | 35.46276 | -119.95452 | 40269 ft | 481 kts | 155° |
| 2026-04-24 03:31 | 35.43408 | -119.93301 | 39575 ft | 483 kts | 155° |
| 2026-04-24 03:32 | 35.40533 | -119.91146 | 38917 ft | 488 kts | 155° |
| 2026-04-24 03:32 | 35.37643 | -119.88982 | 38187 ft | 494 kts | 155° |
| 2026-04-24 03:32 | 35.34680 | -119.86765 | 37388 ft | 501 kts | 155° |
| 2026-04-24 03:32 | 35.31706 | -119.84541 | 36467 ft | 507 kts | 155° |
| 2026-04-24 03:33 | 35.28720 | -119.82235 | 35512 ft | 514 kts | 151° |
| 2026-04-24 03:33 | 35.25850 | -119.79628 | 34551 ft | 520 kts | 149° |
| 2026-04-24 03:33 | 35.22978 | -119.76939 | 33487 ft | 524 kts | 148° |
| 2026-04-24 03:33 | 35.20051 | -119.74194 | 32342 ft | 526 kts | 148° |
| 2026-04-24 03:34 | 35.17157 | -119.71483 | 31308 ft | 524 kts | 148° |
| 2026-04-24 03:34 | 35.14301 | -119.68820 | 30454 ft | 516 kts | 148° |
| 2026-04-24 03:34 | 35.11481 | -119.66195 | 29839 ft | 504 kts | 148° |
| 2026-04-24 03:34 | 35.08701 | -119.63605 | 29367 ft | 489 kts | 148° |
| 2026-04-24 03:35 | 35.06033 | -119.61122 | 28858 ft | 477 kts | 148° |
| 2026-04-24 03:35 | 35.03419 | -119.58695 | 28302 ft | 482 kts | 148° |
| 2026-04-24 03:35 | 35.00713 | -119.56194 | 27675 ft | 491 kts | 148° |
| 2026-04-24 03:35 | 34.98000 | -119.53678 | 27075 ft | 487 kts | 147° |
| 2026-04-24 03:36 | 34.95324 | -119.51198 | 26445 ft | 483 kts | 147° |
| 2026-04-24 03:36 | 34.92672 | -119.48740 | 25745 ft | 479 kts | 147° |
| 2026-04-24 03:36 | 34.90017 | -119.46299 | 25106 ft | 474 kts | 148° |
| 2026-04-24 03:36 | 34.87394 | -119.43947 | 24645 ft | 465 kts | 148° |
| 2026-04-24 03:37 | 34.84787 | -119.41618 | 24157 ft | 456 kts | 148° |
| 2026-04-24 03:37 | 34.82265 | -119.39364 | 23698 ft | 447 kts | 148° |
| 2026-04-24 03:37 | 34.79806 | -119.37167 | 23253 ft | 438 kts | 148° |
| 2026-04-24 03:37 | 34.77375 | -119.34996 | 22846 ft | 430 kts | 148° |
| 2026-04-24 03:38 | 34.74939 | -119.32823 | 22422 ft | 422 kts | 148° |
| 2026-04-24 03:38 | 34.72664 | -119.30818 | 22003 ft | 416 kts | 149° |
| 2026-04-24 03:38 | 34.70333 | -119.28783 | 21558 ft | 411 kts | 149° |
| 2026-04-24 03:38 | 34.68076 | -119.26811 | 21136 ft | 407 kts | 148° |
| 2026-04-24 03:39 | 34.65790 | -119.24816 | 20708 ft | 405 kts | 148° |
| 2026-04-24 03:39 | 34.63522 | -119.22848 | 20283 ft | 401 kts | 149° |
| 2026-04-24 03:39 | 34.61240 | -119.20882 | 19872 ft | 398 kts | 149° |
| 2026-04-24 03:39 | 34.58986 | -119.18942 | 19469 ft | 396 kts | 149° |
| 2026-04-24 03:40 | 34.56752 | -119.17020 | 19071 ft | 393 kts | 149° |
| 2026-04-24 03:40 | 34.54518 | -119.15068 | 18671 ft | 391 kts | 148° |
| 2026-04-24 03:40 | 34.52331 | -119.13126 | 18279 ft | 389 kts | 147° |
| 2026-04-24 03:40 | 34.50166 | -119.11204 | 17897 ft | 386 kts | 147° |
| 2026-04-24 03:41 | 34.48019 | -119.09297 | 17528 ft | 383 kts | 148° |
| 2026-04-24 03:41 | 34.45854 | -119.07383 | 17157 ft | 381 kts | 147° |
| 2026-04-24 03:41 | 34.43728 | -119.05505 | 16739 ft | 378 kts | 148° |
| 2026-04-24 03:41 | 34.41598 | -119.03654 | 16278 ft | 373 kts | 148° |
| 2026-04-24 03:42 | 34.39491 | -119.01829 | 15936 ft | 371 kts | 148° |
| 2026-04-24 03:42 | 34.37418 | -119.00035 | 15639 ft | 370 kts | 148° |
| 2026-04-24 03:42 | 34.35332 | -118.98231 | 15300 ft | 368 kts | 148° |
| 2026-04-24 03:42 | 34.33250 | -118.96415 | 15029 ft | 366 kts | 147° |
| 2026-04-24 03:43 | 34.31213 | -118.94566 | 14792 ft | 366 kts | 146° |
| 2026-04-24 03:43 | 34.29184 | -118.92715 | 14448 ft | 364 kts | 146° |
| 2026-04-24 03:43 | 34.27176 | -118.90881 | 14066 ft | 361 kts | 146° |
| 2026-04-24 03:43 | 34.25172 | -118.89056 | 13675 ft | 358 kts | 146° |
| 2026-04-24 03:44 | 34.23185 | -118.87226 | 13281 ft | 352 kts | 145° |
| 2026-04-24 03:44 | 34.21260 | -118.85451 | 12909 ft | 346 kts | 145° |
| 2026-04-24 03:44 | 34.19367 | -118.83705 | 12546 ft | 340 kts | 145° |
| 2026-04-24 03:44 | 34.17487 | -118.81979 | 12187 ft | 335 kts | 145° |
| 2026-04-24 03:45 | 34.15665 | -118.80282 | 11849 ft | 329 kts | 142° |
| 2026-04-24 03:45 | 34.13997 | -118.78456 | 11607 ft | 322 kts | 139° |
| 2026-04-24 03:45 | 34.12387 | -118.76641 | 11376 ft | 314 kts | 139° |
| 2026-04-24 03:45 | 34.10787 | -118.74872 | 11141 ft | 311 kts | 140° |
| 2026-04-24 03:46 | 34.09189 | -118.73130 | 10895 ft | 309 kts | 140° |
| 2026-04-24 03:46 | 34.07584 | -118.71386 | 10645 ft | 307 kts | 140° |
| 2026-04-24 03:46 | 34.06010 | -118.69675 | 10399 ft | 305 kts | 140° |
| 2026-04-24 03:46 | 34.04432 | -118.67948 | 10147 ft | 300 kts | 137° |
| 2026-04-24 03:47 | 34.03270 | -118.65913 | 9899 ft | 295 kts | 111° |
| 2026-04-24 03:47 | 34.02765 | -118.63549 | 9676 ft | 292 kts | 99° |
| 2026-04-24 03:47 | 34.02478 | -118.61133 | 9450 ft | 290 kts | 96° |
| 2026-04-24 03:47 | 34.02244 | -118.58726 | 9223 ft | 288 kts | 96° |
| 2026-04-24 03:48 | 34.02019 | -118.56338 | 8997 ft | 286 kts | 96° |
| 2026-04-24 03:48 | 34.01794 | -118.53947 | 8770 ft | 282 kts | 96° |
| 2026-04-24 03:48 | 34.01577 | -118.51637 | 8552 ft | 276 kts | 96° |
| 2026-04-24 03:48 | 34.01361 | -118.49339 | 8335 ft | 271 kts | 96° |
| 2026-04-24 03:49 | 34.01148 | -118.47107 | 8123 ft | 266 kts | 97° |
| 2026-04-24 03:49 | 34.00590 | -118.45023 | 7922 ft | 259 kts | 117° |
| 2026-04-24 03:49 | 33.99699 | -118.43167 | 7802 ft | 251 kts | 121° |
| 2026-04-24 03:49 | 33.98783 | -118.41411 | 7695 ft | 244 kts | 122° |
| 2026-04-24 03:50 | 33.97880 | -118.39685 | 7585 ft | 243 kts | 122° |
| 2026-04-24 03:50 | 33.96983 | -118.37970 | 7469 ft | 243 kts | 122° |
| 2026-04-24 03:50 | 33.96073 | -118.36225 | 7349 ft | 243 kts | 122° |
| 2026-04-24 03:50 | 33.95187 | -118.34528 | 7232 ft | 242 kts | 122° |
| 2026-04-24 03:51 | 33.94284 | -118.32800 | 7112 ft | 242 kts | 123° |
| 2026-04-24 03:51 | 33.93439 | -118.31043 | 7010 ft | 241 kts | 113° |
| 2026-04-24 03:51 | 33.92876 | -118.29102 | 6997 ft | 242 kts | 107° |
| 2026-04-24 03:51 | 33.92396 | -118.27176 | 6997 ft | 242 kts | 107° |
| 2026-04-24 03:52 | 33.91915 | -118.25253 | 6997 ft | 242 kts | 107° |
| 2026-04-24 03:52 | 33.91423 | -118.23302 | 6998 ft | 242 kts | 107° |
| 2026-04-24 03:52 | 33.90935 | -118.21370 | 6998 ft | 242 kts | 107° |
| 2026-04-24 03:52 | 33.90461 | -118.19415 | 6997 ft | 242 kts | 100° |
| 2026-04-24 03:53 | 33.90407 | -118.17432 | 6852 ft | 238 kts | 85° |
| 2026-04-24 03:53 | 33.90588 | -118.15435 | 6555 ft | 240 kts | 82° |
| 2026-04-24 03:53 | 33.90793 | -118.13450 | 6323 ft | 238 kts | 83° |
| 2026-04-24 03:53 | 33.90993 | -118.11468 | 6084 ft | 238 kts | 83° |
| 2026-04-24 03:54 | 33.91188 | -118.09508 | 5845 ft | 237 kts | 83° |
| 2026-04-24 03:54 | 33.91385 | -118.07520 | 5604 ft | 236 kts | 83° |
| 2026-04-24 03:54 | 33.91580 | -118.05560 | 5368 ft | 236 kts | 82° |
| 2026-04-24 03:54 | 33.91798 | -118.03626 | 5143 ft | 234 kts | 82° |
| 2026-04-24 03:55 | 33.92019 | -118.01684 | 5019 ft | 233 kts | 82° |
| 2026-04-24 03:55 | 33.92239 | -117.99732 | 4991 ft | 233 kts | 82° |
| 2026-04-24 03:55 | 33.92451 | -117.97819 | 4776 ft | 232 kts | 82° |
| 2026-04-24 03:55 | 33.92734 | -117.95902 | 4521 ft | 231 kts | 68° |
| 2026-04-24 03:56 | 33.93652 | -117.94405 | 4421 ft | 220 kts | 33° |
| 2026-04-24 03:56 | 33.95041 | -117.93790 | 4191 ft | 215 kts | 360° |
| 2026-04-24 03:56 | 33.96468 | -117.94197 | 3934 ft | 211 kts | 326° |
| 2026-04-24 03:56 | 33.97424 | -117.95494 | 3682 ft | 208 kts | 291° |
| 2026-04-24 03:57 | 33.97636 | -117.97182 | 3616 ft | 207 kts | 270° |
| 2026-04-24 03:57 | 33.97589 | -117.98916 | 3607 ft | 208 kts | 266° |
| 2026-04-24 03:57 | 33.97474 | -118.00647 | 3607 ft | 208 kts | 265° |
| 2026-04-24 03:57 | 33.97328 | -118.02382 | 3607 ft | 208 kts | 264° |
| 2026-04-24 03:58 | 33.97167 | -118.04123 | 3604 ft | 206 kts | 264° |
| 2026-04-24 03:58 | 33.97014 | -118.05739 | 3620 ft | 196 kts | 264° |
| 2026-04-24 03:58 | 33.96855 | -118.07387 | 3604 ft | 198 kts | 263° |
| 2026-04-24 03:58 | 33.96693 | -118.09038 | 3602 ft | 198 kts | 263° |
| 2026-04-24 03:59 | 33.96530 | -118.10680 | 3601 ft | 198 kts | 263° |
| 2026-04-24 03:59 | 33.96366 | -118.12320 | 3600 ft | 198 kts | 263° |
| 2026-04-24 03:59 | 33.96200 | -118.13984 | 3600 ft | 198 kts | 263° |
| 2026-04-24 03:59 | 33.96036 | -118.15630 | 3599 ft | 197 kts | 263° |
| 2026-04-24 04:00 | 33.95878 | -118.17220 | 3497 ft | 190 kts | 263° |
| 2026-04-24 04:00 | 33.95722 | -118.18780 | 3234 ft | 182 kts | 263° |
| 2026-04-24 04:00 | 33.95580 | -118.20200 | 3023 ft | 164 kts | 263° |
| 2026-04-24 04:00 | 33.95449 | -118.21506 | 2844 ft | 152 kts | 263° |
| 2026-04-24 04:01 | 33.95325 | -118.22729 | 2661 ft | 146 kts | 263° |
| 2026-04-24 04:01 | 33.95203 | -118.23928 | 2472 ft | 144 kts | 263° |
| 2026-04-24 04:01 | 33.95079 | -118.25142 | 2279 ft | 144 kts | 263° |
| 2026-04-24 04:01 | 33.94957 | -118.26340 | 2088 ft | 144 kts | 263° |
| 2026-04-24 04:02 | 33.94835 | -118.27535 | 1895 ft | 143 kts | 263° |
| 2026-04-24 04:02 | 33.94715 | -118.28714 | 1704 ft | 142 kts | 263° |
| 2026-04-24 04:02 | 33.94596 | -118.29884 | 1514 ft | 141 kts | 263° |
| 2026-04-24 04:02 | 33.94475 | -118.31065 | 1321 ft | 140 kts | 263° |
| 2026-04-24 04:03 | 33.94356 | -118.32227 | 1132 ft | 139 kts | 262° |
| 2026-04-24 04:03 | 33.94237 | -118.33384 | 946 ft | 138 kts | 262° |
| 2026-04-24 04:03 | 33.94120 | -118.34532 | 759 ft | 137 kts | 262° |
| 2026-04-24 04:03 | 33.94004 | -118.35667 | 571 ft | 136 kts | 262° |
| 2026-04-24 04:04 | 33.93893 | -118.36795 | 392 ft | 137 kts | 261° |
| 2026-04-24 04:04 | 33.93778 | -118.37947 | 216 ft | 139 kts | 261° |
| 2026-04-24 04:04 | 33.93658 | -118.39064 | 116 ft | 121 kts | 261° |
| 2026-04-24 04:04 | 33.93572 | -118.39868 | 125 ft | 74 kts | 264° |
| 2026-04-24 04:05 | 33.93528 | -118.40301 | 132 ft | 30 kts | 263° |
| 2026-04-24 04:05 | 33.93518 | -118.40390 | 133 ft | 6 kts | 263° |
| 2026-04-24 04:05 | 33.93500 | -118.40566 | 136 ft | 33 kts | 266° |
| 2026-04-24 04:05 | 33.93435 | -118.40715 | 137 ft | 11 kts | 189° |
| 2026-04-24 04:06 | 33.93374 | -118.40653 | 135 ft | 14 kts | 99° |
| 2026-04-24 04:06 | 33.93388 | -118.40536 | 134 ft | 12 kts | 89° |
| 2026-04-24 04:06 | 33.93397 | -118.40399 | 132 ft | 20 kts | 78° |
| 2026-04-24 04:06 | 33.93416 | -118.40205 | 131 ft | 21 kts | 83° |
| 2026-04-24 04:07 | 33.93436 | -118.40016 | 129 ft | 24 kts | 83° |
| 2026-04-24 04:07 | 33.93456 | -118.39819 | 126 ft | 22 kts | 84° |
| 2026-04-24 04:07 | 33.93474 | -118.39624 | 122 ft | 25 kts | 83° |
| 2026-04-24 04:07 | 33.93502 | -118.39401 | 117 ft | 27 kts | 83° |
| 2026-04-24 04:08 | 33.93525 | -118.39165 | 115 ft | 29 kts | 83° |
| 2026-04-24 04:08 | 33.93547 | -118.38925 | 115 ft | 27 kts | 84° |
| 2026-04-24 04:08 | 33.93570 | -118.38693 | 114 ft | 24 kts | 84° |
| 2026-04-24 04:08 | 33.93586 | -118.38558 | 113 ft | 7 kts | 81° |
| 2026-04-24 04:09 | 33.93545 | -118.38511 | 112 ft | 12 kts | 178° |
| 2026-04-24 04:09 | 33.93477 | -118.38512 | 112 ft | 11 kts | 181° |
| 2026-04-24 04:09 | 33.93447 | -118.38522 | 113 ft | 4 kts | 229° |
| 2026-04-24 04:09 | 33.93442 | -118.38563 | 113 ft | 1 kts | 270° |
| 2026-04-24 04:10 | 33.93442 | -118.38583 | 114 ft | 0 kts | 270° |